sensor_id;sensor_type;location;lat;lon;timestamp;P1;durP1;ratioP1;P2;durP2;ratioP2
22378;SDS011;11357;49.990;7.370;2022-08-03T00:01:20;83.57;;;40.45;;
22378;SDS011;11357;49.990;7.370;2022-08-03T00:03:46;102.53;;;38.30;;
22378;SDS011;11357;49.990;7.370;2022-08-03T00:06:12;87.73;;;35.67;;
22378;SDS011;11357;49.990;7.370;2022-08-03T00:08:37;87.50;;;45.63;;
22378;SDS011;11357;49.990;7.370;2022-08-03T00:11:03;113.07;;;54.03;;
22378;SDS011;11357;49.990;7.370;2022-08-03T00:13:31;96.27;;;50.80;;
22378;SDS011;11357;49.990;7.370;2022-08-03T00:15:57;120.10;;;51.33;;
22378;SDS011;11357;49.990;7.370;2022-08-03T00:18:23;114.37;;;47.03;;
22378;SDS011;11357;49.990;7.370;2022-08-03T00:20:49;112.73;;;47.57;;
22378;SDS011;11357;49.990;7.370;2022-08-03T00:23:15;89.65;;;38.55;;
22378;SDS011;11357;49.990;7.370;2022-08-03T00:25:41;90.43;;;42.80;;
22378;SDS011;11357;49.990;7.370;2022-08-03T00:28:07;91.80;;;40.37;;
22378;SDS011;11357;49.990;7.370;2022-08-03T00:30:33;85.40;;;40.20;;
22378;SDS011;11357;49.990;7.370;2022-08-03T00:32:59;79.77;;;36.13;;
22378;SDS011;11357;49.990;7.370;2022-08-03T00:35:25;62.57;;;29.57;;
22378;SDS011;11357;49.990;7.370;2022-08-03T00:37:51;85.63;;;40.37;;
22378;SDS011;11357;49.990;7.370;2022-08-03T00:40:17;97.63;;;39.73;;
22378;SDS011;11357;49.990;7.370;2022-08-03T00:42:51;84.73;;;36.47;;
22378;SDS011;11357;49.990;7.370;2022-08-03T00:45:21;77.03;;;32.60;;
22378;SDS011;11357;49.990;7.370;2022-08-03T00:47:49;92.23;;;39.27;;
22378;SDS011;11357;49.990;7.370;2022-08-03T00:50:15;89.53;;;38.40;;
22378;SDS011;11357;49.990;7.370;2022-08-03T00:52:41;111.13;;;41.80;;
22378;SDS011;11357;49.990;7.370;2022-08-03T00:55:08;77.50;;;33.90;;
22378;SDS011;11357;49.990;7.370;2022-08-03T00:57:35;96.83;;;41.30;;
22378;SDS011;11357;49.990;7.370;2022-08-03T01:00:00;81.80;;;40.40;;
22378;SDS011;11357;49.990;7.370;2022-08-03T01:02:27;74.00;;;30.83;;
22378;SDS011;11357;49.990;7.370;2022-08-03T01:04:53;83.23;;;37.93;;
22378;SDS011;11357;49.990;7.370;2022-08-03T01:10:16;117.90;;;41.27;;
22378;SDS011;11357;49.990;7.370;2022-08-03T01:20:50;68.60;;;34.17;;
22378;SDS011;11357;49.990;7.370;2022-08-03T01:31:56;79.83;;;38.50;;
22378;SDS011;11357;49.990;7.370;2022-08-03T01:34:40;72.50;;;33.50;;
22378;SDS011;11357;49.990;7.370;2022-08-03T01:37:10;86.17;;;33.60;;
22378;SDS011;11357;49.990;7.370;2022-08-03T01:39:40;110.97;;;42.37;;
22378;SDS011;11357;49.990;7.370;2022-08-03T01:42:08;91.80;;;41.27;;
22378;SDS011;11357;49.990;7.370;2022-08-03T01:44:39;82.90;;;35.57;;
22378;SDS011;11357;49.990;7.370;2022-08-03T01:47:06;91.53;;;35.17;;
22378;SDS011;11357;49.990;7.370;2022-08-03T01:49:36;85.43;;;34.57;;
22378;SDS011;11357;49.990;7.370;2022-08-03T01:52:04;84.87;;;32.80;;
22378;SDS011;11357;49.990;7.370;2022-08-03T01:54:33;88.83;;;38.47;;
22378;SDS011;11357;49.990;7.370;2022-08-03T01:57:06;70.80;;;31.23;;
22378;SDS011;11357;49.990;7.370;2022-08-03T01:59:33;61.60;;;26.97;;
22378;SDS011;11357;49.990;7.370;2022-08-03T02:02:00;69.97;;;34.00;;
22378;SDS011;11357;49.990;7.370;2022-08-03T02:04:27;72.67;;;31.03;;
22378;SDS011;11357;49.990;7.370;2022-08-03T02:06:54;79.63;;;28.73;;
22378;SDS011;11357;49.990;7.370;2022-08-03T02:09:21;59.83;;;24.47;;
22378;SDS011;11357;49.990;7.370;2022-08-03T02:11:49;69.83;;;31.00;;
22378;SDS011;11357;49.990;7.370;2022-08-03T02:14:16;63.90;;;26.87;;
22378;SDS011;11357;49.990;7.370;2022-08-03T02:16:44;70.57;;;26.27;;
22378;SDS011;11357;49.990;7.370;2022-08-03T02:19:10;71.40;;;29.67;;
22378;SDS011;11357;49.990;7.370;2022-08-03T02:21:38;62.50;;;27.17;;
22378;SDS011;11357;49.990;7.370;2022-08-03T02:24:08;69.07;;;25.47;;
22378;SDS011;11357;49.990;7.370;2022-08-03T02:26:33;64.17;;;26.90;;
22378;SDS011;11357;49.990;7.370;2022-08-03T02:29:04;60.83;;;22.57;;
22378;SDS011;11357;49.990;7.370;2022-08-03T02:31:35;76.87;;;27.20;;
22378;SDS011;11357;49.990;7.370;2022-08-03T02:34:03;58.77;;;27.30;;
22378;SDS011;11357;49.990;7.370;2022-08-03T02:36:34;53.17;;;20.77;;
22378;SDS011;11357;49.990;7.370;2022-08-03T02:39:02;68.40;;;29.67;;
22378;SDS011;11357;49.990;7.370;2022-08-03T02:41:36;69.10;;;31.97;;
22378;SDS011;11357;49.990;7.370;2022-08-03T02:44:07;67.47;;;28.23;;
22378;SDS011;11357;49.990;7.370;2022-08-03T02:46:35;67.73;;;27.17;;
22378;SDS011;11357;49.990;7.370;2022-08-03T02:49:03;74.77;;;27.63;;
22378;SDS011;11357;49.990;7.370;2022-08-03T02:51:31;68.50;;;24.20;;
22378;SDS011;11357;49.990;7.370;2022-08-03T02:53:59;98.80;;;29.93;;
22378;SDS011;11357;49.990;7.370;2022-08-03T02:56:27;60.27;;;26.33;;
22378;SDS011;11357;49.990;7.370;2022-08-03T02:58:54;69.60;;;27.23;;
22378;SDS011;11357;49.990;7.370;2022-08-03T03:01:22;67.63;;;27.67;;
22378;SDS011;11357;49.990;7.370;2022-08-03T03:03:51;75.17;;;27.33;;
22378;SDS011;11357;49.990;7.370;2022-08-03T03:06:17;69.30;;;29.20;;
22378;SDS011;11357;49.990;7.370;2022-08-03T03:08:44;81.13;;;28.33;;
22378;SDS011;11357;49.990;7.370;2022-08-03T03:11:11;70.80;;;28.13;;
22378;SDS011;11357;49.990;7.370;2022-08-03T03:13:39;70.13;;;24.70;;
22378;SDS011;11357;49.990;7.370;2022-08-03T03:16:07;70.53;;;26.47;;
22378;SDS011;11357;49.990;7.370;2022-08-03T03:18:34;81.73;;;28.03;;
22378;SDS011;11357;49.990;7.370;2022-08-03T03:21:02;65.80;;;25.17;;
22378;SDS011;11357;49.990;7.370;2022-08-03T03:23:28;69.33;;;27.07;;
22378;SDS011;11357;49.990;7.370;2022-08-03T03:25:55;48.53;;;23.33;;
22378;SDS011;11357;49.990;7.370;2022-08-03T03:28:23;70.93;;;22.70;;
22378;SDS011;11357;49.990;7.370;2022-08-03T03:30:49;72.10;;;27.90;;
22378;SDS011;11357;49.990;7.370;2022-08-03T03:33:15;68.97;;;28.17;;
22378;SDS011;11357;49.990;7.370;2022-08-03T03:35:41;76.60;;;26.17;;
22378;SDS011;11357;49.990;7.370;2022-08-03T03:38:09;80.57;;;27.47;;
22378;SDS011;11357;49.990;7.370;2022-08-03T03:40:35;68.50;;;23.50;;
22378;SDS011;11357;49.990;7.370;2022-08-03T03:43:06;58.70;;;23.07;;
22378;SDS011;11357;49.990;7.370;2022-08-03T03:45:33;54.00;;;23.30;;
22378;SDS011;11357;49.990;7.370;2022-08-03T03:48:00;58.07;;;22.47;;
22378;SDS011;11357;49.990;7.370;2022-08-03T03:50:30;61.93;;;26.73;;
22378;SDS011;11357;49.990;7.370;2022-08-03T03:52:57;71.53;;;23.83;;
22378;SDS011;11357;49.990;7.370;2022-08-03T03:55:23;71.40;;;25.73;;
22378;SDS011;11357;49.990;7.370;2022-08-03T03:57:48;67.53;;;28.53;;
22378;SDS011;11357;49.990;7.370;2022-08-03T04:00:15;78.60;;;27.40;;
22378;SDS011;11357;49.990;7.370;2022-08-03T04:02:41;63.17;;;27.57;;
22378;SDS011;11357;49.990;7.370;2022-08-03T04:05:08;63.37;;;23.53;;
22378;SDS011;11357;49.990;7.370;2022-08-03T04:11:27;65.07;;;24.00;;
22378;SDS011;11357;49.990;7.370;2022-08-03T04:14:12;70.50;;;30.27;;
22378;SDS011;11357;49.990;7.370;2022-08-03T04:16:44;60.23;;;28.17;;
22378;SDS011;11357;49.990;7.370;2022-08-03T04:19:14;65.57;;;26.00;;
22378;SDS011;11357;49.990;7.370;2022-08-03T04:21:55;65.30;;;27.07;;
22378;SDS011;11357;49.990;7.370;2022-08-03T04:24:25;75.10;;;27.13;;
22378;SDS011;11357;49.990;7.370;2022-08-03T04:26:54;74.67;;;23.07;;
22378;SDS011;11357;49.990;7.370;2022-08-03T04:29:21;77.90;;;21.53;;
22378;SDS011;11357;49.990;7.370;2022-08-03T04:31:50;60.67;;;24.07;;
22378;SDS011;11357;49.990;7.370;2022-08-03T04:34:18;62.37;;;25.23;;
22378;SDS011;11357;49.990;7.370;2022-08-03T04:36:46;64.30;;;24.13;;
22378;SDS011;11357;49.990;7.370;2022-08-03T04:39:19;58.63;;;22.93;;
22378;SDS011;11357;49.990;7.370;2022-08-03T04:41:52;66.80;;;25.93;;
22378;SDS011;11357;49.990;7.370;2022-08-03T04:44:20;69.37;;;27.83;;
22378;SDS011;11357;49.990;7.370;2022-08-03T04:46:48;86.60;;;29.90;;
22378;SDS011;11357;49.990;7.370;2022-08-03T04:49:15;78.83;;;26.90;;
22378;SDS011;11357;49.990;7.370;2022-08-03T04:51:40;78.50;;;22.23;;
22378;SDS011;11357;49.990;7.370;2022-08-03T04:54:10;83.13;;;29.60;;
22378;SDS011;11357;49.990;7.370;2022-08-03T04:56:40;81.43;;;26.40;;
22378;SDS011;11357;49.990;7.370;2022-08-03T04:59:11;86.93;;;30.17;;
22378;SDS011;11357;49.990;7.370;2022-08-03T05:01:38;83.07;;;30.93;;
22378;SDS011;11357;49.990;7.370;2022-08-03T05:04:06;86.57;;;34.77;;
22378;SDS011;11357;49.990;7.370;2022-08-03T05:06:31;80.57;;;34.87;;
22378;SDS011;11357;49.990;7.370;2022-08-03T05:08:57;81.73;;;39.00;;
22378;SDS011;11357;49.990;7.370;2022-08-03T05:11:23;89.53;;;43.97;;
22378;SDS011;11357;49.990;7.370;2022-08-03T05:13:48;123.63;;;50.63;;
22378;SDS011;11357;49.990;7.370;2022-08-03T05:16:14;109.93;;;51.07;;
22378;SDS011;11357;49.990;7.370;2022-08-03T05:18:43;98.53;;;39.00;;
22378;SDS011;11357;49.990;7.370;2022-08-03T05:21:10;132.20;;;65.50;;
22378;SDS011;11357;49.990;7.370;2022-08-03T05:23:38;104.47;;;51.27;;
22378;SDS011;11357;49.990;7.370;2022-08-03T05:26:04;111.85;;;57.97;;
22378;SDS011;11357;49.990;7.370;2022-08-03T05:28:29;117.13;;;52.67;;
22378;SDS011;11357;49.990;7.370;2022-08-03T05:30:55;117.22;;;59.47;;
22378;SDS011;11357;49.990;7.370;2022-08-03T05:33:21;117.60;;;49.37;;
22378;SDS011;11357;49.990;7.370;2022-08-03T05:35:47;99.68;;;57.17;;
22378;SDS011;11357;49.990;7.370;2022-08-03T05:38:13;126.30;;;66.00;;
22378;SDS011;11357;49.990;7.370;2022-08-03T05:40:38;119.88;;;69.47;;
22378;SDS011;11357;49.990;7.370;2022-08-03T05:43:04;136.30;;;62.85;;
22378;SDS011;11357;49.990;7.370;2022-08-03T05:45:30;122.57;;;52.97;;
22378;SDS011;11357;49.990;7.370;2022-08-03T05:47:55;77.03;;;36.58;;
22378;SDS011;11357;49.990;7.370;2022-08-03T05:50:21;76.22;;;31.63;;
22378;SDS011;11357;49.990;7.370;2022-08-03T05:52:47;88.82;;;33.45;;
22378;SDS011;11357;49.990;7.370;2022-08-03T05:55:13;82.82;;;30.67;;
22378;SDS011;11357;49.990;7.370;2022-08-03T05:57:39;78.25;;;30.55;;
22378;SDS011;11357;49.990;7.370;2022-08-03T06:00:08;68.35;;;29.20;;
22378;SDS011;11357;49.990;7.370;2022-08-03T06:02:35;81.55;;;30.05;;
22378;SDS011;11357;49.990;7.370;2022-08-03T06:05:02;81.97;;;34.13;;
22378;SDS011;11357;49.990;7.370;2022-08-03T06:07:28;99.50;;;40.03;;
22378;SDS011;11357;49.990;7.370;2022-08-03T06:09:54;99.78;;;41.28;;
22378;SDS011;11357;49.990;7.370;2022-08-03T06:12:19;108.85;;;54.90;;
22378;SDS011;11357;49.990;7.370;2022-08-03T06:14:45;115.50;;;56.85;;
22378;SDS011;11357;49.990;7.370;2022-08-03T06:17:11;132.20;;;60.53;;
22378;SDS011;11357;49.990;7.370;2022-08-03T06:19:37;142.63;;;77.43;;
22378;SDS011;11357;49.990;7.370;2022-08-03T06:22:02;150.10;;;83.80;;
22378;SDS011;11357;49.990;7.370;2022-08-03T06:24:28;181.10;;;120.57;;
22378;SDS011;11357;49.990;7.370;2022-08-03T06:26:54;250.38;;;190.15;;
22378;SDS011;11357;49.990;7.370;2022-08-03T06:29:20;451.15;;;274.58;;
22378;SDS011;11357;49.990;7.370;2022-08-03T06:31:46;250.20;;;175.07;;
22378;SDS011;11357;49.990;7.370;2022-08-03T06:34:11;318.52;;;250.73;;
22378;SDS011;11357;49.990;7.370;2022-08-03T06:36:37;620.35;;;525.33;;
22378;SDS011;11357;49.990;7.370;2022-08-03T06:39:03;1347.65;;;850.47;;
22378;SDS011;11357;49.990;7.370;2022-08-03T06:41:29;1716.85;;;917.03;;
22378;SDS011;11357;49.990;7.370;2022-08-03T06:43:55;1188.43;;;804.95;;
22378;SDS011;11357;49.990;7.370;2022-08-03T06:46:20;1220.38;;;881.80;;
22378;SDS011;11357;49.990;7.370;2022-08-03T06:48:46;1999.90;;;999.90;;
22378;SDS011;11357;49.990;7.370;2022-08-03T06:51:12;1999.90;;;999.90;;
22378;SDS011;11357;49.990;7.370;2022-08-03T06:53:38;1999.90;;;722.20;;
22378;SDS011;11357;49.990;7.370;2022-08-03T06:56:04;1999.90;;;999.90;;
22378;SDS011;11357;49.990;7.370;2022-08-03T06:58:30;1999.90;;;999.90;;
22378;SDS011;11357;49.990;7.370;2022-08-03T07:00:56;1942.68;;;932.50;;
22378;SDS011;11357;49.990;7.370;2022-08-03T07:03:21;1999.90;;;969.03;;
22378;SDS011;11357;49.990;7.370;2022-08-03T07:05:47;942.70;;;716.08;;
22378;SDS011;11357;49.990;7.370;2022-08-03T07:08:14;432.02;;;395.80;;
22378;SDS011;11357;49.990;7.370;2022-08-03T07:10:40;431.73;;;395.33;;
22378;SDS011;11357;49.990;7.370;2022-08-03T07:13:06;272.40;;;253.50;;
22378;SDS011;11357;49.990;7.370;2022-08-03T07:15:33;254.25;;;237.70;;
22378;SDS011;11357;49.990;7.370;2022-08-03T07:17:59;165.35;;;155.65;;
22378;SDS011;11357;49.990;7.370;2022-08-03T07:20:25;177.75;;;167.45;;
22378;SDS011;11357;49.990;7.370;2022-08-03T07:22:50;139.75;;;131.68;;
22378;SDS011;11357;49.990;7.370;2022-08-03T07:25:16;115.93;;;109.30;;
22378;SDS011;11357;49.990;7.370;2022-08-03T07:27:43;72.47;;;68.43;;
22378;SDS011;11357;49.990;7.370;2022-08-03T07:30:09;23.60;;;22.27;;
22378;SDS011;11357;49.990;7.370;2022-08-03T07:32:35;11.57;;;10.95;;
22378;SDS011;11357;49.990;7.370;2022-08-03T07:35:02;2.60;;;2.40;;
22378;SDS011;11357;49.990;7.370;2022-08-03T07:37:28;4.05;;;2.55;;
22378;SDS011;11357;49.990;7.370;2022-08-03T07:39:54;3.60;;;3.08;;
22378;SDS011;11357;49.990;7.370;2022-08-03T07:42:20;3.80;;;2.95;;
22378;SDS011;11357;49.990;7.370;2022-08-03T07:44:47;4.65;;;2.22;;
22378;SDS011;11357;49.990;7.370;2022-08-03T07:47:17;4.40;;;1.90;;
22378;SDS011;11357;49.990;7.370;2022-08-03T07:49:43;1.83;;;1.50;;
22378;SDS011;11357;49.990;7.370;2022-08-03T07:52:09;3.50;;;1.58;;
22378;SDS011;11357;49.990;7.370;2022-08-03T07:54:53;2.78;;;1.70;;
22378;SDS011;11357;49.990;7.370;2022-08-03T07:57:19;1.60;;;1.48;;
22378;SDS011;11357;49.990;7.370;2022-08-03T07:59:47;2.67;;;1.40;;
22378;SDS011;11357;49.990;7.370;2022-08-03T08:02:13;1.80;;;1.42;;
22378;SDS011;11357;49.990;7.370;2022-08-03T08:04:39;6.45;;;1.50;;
22378;SDS011;11357;49.990;7.370;2022-08-03T08:07:05;2.55;;;1.40;;
22378;SDS011;11357;49.990;7.370;2022-08-03T08:09:31;1.35;;;1.25;;
22378;SDS011;11357;49.990;7.370;2022-08-03T08:11:56;4.22;;;1.38;;
22378;SDS011;11357;49.990;7.370;2022-08-03T08:14:22;1.65;;;1.52;;
22378;SDS011;11357;49.990;7.370;2022-08-03T08:16:48;2.25;;;1.40;;
22378;SDS011;11357;49.990;7.370;2022-08-03T08:19:13;1.85;;;1.02;;
22378;SDS011;11357;49.990;7.370;2022-08-03T08:21:40;2.20;;;1.60;;
22378;SDS011;11357;49.990;7.370;2022-08-03T08:24:07;2.85;;;1.77;;
22378;SDS011;11357;49.990;7.370;2022-08-03T08:26:34;1.25;;;1.15;;
22378;SDS011;11357;49.990;7.370;2022-08-03T08:29:00;4.75;;;1.20;;
22378;SDS011;11357;49.990;7.370;2022-08-03T08:31:26;4.25;;;1.60;;
22378;SDS011;11357;49.990;7.370;2022-08-03T08:33:52;2.13;;;1.40;;
22378;SDS011;11357;49.990;7.370;2022-08-03T08:36:17;2.58;;;1.42;;
22378;SDS011;11357;49.990;7.370;2022-08-03T08:38:46;4.05;;;1.10;;
22378;SDS011;11357;49.990;7.370;2022-08-03T08:41:12;2.35;;;1.40;;
22378;SDS011;11357;49.990;7.370;2022-08-03T08:43:39;7.57;;;1.42;;
22378;SDS011;11357;49.990;7.370;2022-08-03T08:46:05;3.95;;;1.20;;
22378;SDS011;11357;49.990;7.370;2022-08-03T08:48:32;1.77;;;1.23;;
22378;SDS011;11357;49.990;7.370;2022-08-03T08:51:02;3.95;;;1.40;;
22378;SDS011;11357;49.990;7.370;2022-08-03T08:53:29;4.82;;;1.30;;
22378;SDS011;11357;49.990;7.370;2022-08-03T08:55:59;2.50;;;1.20;;
22378;SDS011;11357;49.990;7.370;2022-08-03T08:58:28;1.75;;;1.20;;
22378;SDS011;11357;49.990;7.370;2022-08-03T09:00:55;2.00;;;1.30;;
22378;SDS011;11357;49.990;7.370;2022-08-03T09:03:21;1.88;;;1.40;;
22378;SDS011;11357;49.990;7.370;2022-08-03T09:05:47;3.25;;;1.15;;
22378;SDS011;11357;49.990;7.370;2022-08-03T09:08:13;5.68;;;1.38;;
22378;SDS011;11357;49.990;7.370;2022-08-03T09:10:39;2.72;;;1.35;;
22378;SDS011;11357;49.990;7.370;2022-08-03T09:13:04;1.85;;;1.20;;
22378;SDS011;11357;49.990;7.370;2022-08-03T09:15:32;2.03;;;1.23;;
22378;SDS011;11357;49.990;7.370;2022-08-03T09:17:59;4.10;;;1.42;;
22378;SDS011;11357;49.990;7.370;2022-08-03T09:20:28;3.42;;;1.80;;
22378;SDS011;11357;49.990;7.370;2022-08-03T09:25:32;1.95;;;1.10;;
22378;SDS011;11357;49.990;7.370;2022-08-03T09:28:12;2.88;;;1.30;;
22378;SDS011;11357;49.990;7.370;2022-08-03T09:30:43;1.45;;;1.20;;
22378;SDS011;11357;49.990;7.370;2022-08-03T09:33:11;2.97;;;1.20;;
22378;SDS011;11357;49.990;7.370;2022-08-03T09:35:44;1.85;;;1.08;;
22378;SDS011;11357;49.990;7.370;2022-08-03T09:40:43;7.85;;;1.48;;
22378;SDS011;11357;49.990;7.370;2022-08-03T09:43:10;2.63;;;1.42;;
22378;SDS011;11357;49.990;7.370;2022-08-03T09:45:37;2.65;;;1.25;;
22378;SDS011;11357;49.990;7.370;2022-08-03T09:50:49;4.15;;;1.55;;
22378;SDS011;11357;49.990;7.370;2022-08-03T09:53:19;5.15;;;1.27;;
22378;SDS011;11357;49.990;7.370;2022-08-03T09:58:21;3.00;;;1.10;;
22378;SDS011;11357;49.990;7.370;2022-08-03T10:01:03;1.88;;;1.08;;
22378;SDS011;11357;49.990;7.370;2022-08-03T10:03:31;2.58;;;1.23;;
22378;SDS011;11357;49.990;7.370;2022-08-03T10:05:59;1.95;;;1.30;;
22378;SDS011;11357;49.990;7.370;2022-08-03T10:08:46;4.20;;;1.05;;
22378;SDS011;11357;49.990;7.370;2022-08-03T10:11:29;1.92;;;1.40;;
22378;SDS011;11357;49.990;7.370;2022-08-03T10:14:02;1.52;;;1.42;;
22378;SDS011;11357;49.990;7.370;2022-08-03T10:16:34;3.95;;;1.20;;
22378;SDS011;11357;49.990;7.370;2022-08-03T10:19:06;5.60;;;1.75;;
22378;SDS011;11357;49.990;7.370;2022-08-03T10:21:35;2.70;;;1.40;;
22378;SDS011;11357;49.990;7.370;2022-08-03T10:24:03;4.13;;;1.40;;
22378;SDS011;11357;49.990;7.370;2022-08-03T10:26:32;2.67;;;1.50;;
22378;SDS011;11357;49.990;7.370;2022-08-03T10:29:02;4.93;;;1.35;;
22378;SDS011;11357;49.990;7.370;2022-08-03T10:31:37;2.85;;;1.38;;
22378;SDS011;11357;49.990;7.370;2022-08-03T10:34:05;1.65;;;1.42;;
22378;SDS011;11357;49.990;7.370;2022-08-03T10:36:39;5.18;;;1.50;;
22378;SDS011;11357;49.990;7.370;2022-08-03T10:39:06;4.65;;;1.60;;
22378;SDS011;11357;49.990;7.370;2022-08-03T10:41:35;2.30;;;1.52;;
22378;SDS011;11357;49.990;7.370;2022-08-03T10:47:03;5.18;;;1.48;;
22378;SDS011;11357;49.990;7.370;2022-08-03T10:49:29;6.90;;;1.33;;
22378;SDS011;11357;49.990;7.370;2022-08-03T10:51:56;2.70;;;1.20;;
22378;SDS011;11357;49.990;7.370;2022-08-03T11:00:24;2.50;;;1.33;;
22378;SDS011;11357;49.990;7.370;2022-08-03T11:03:00;5.63;;;1.58;;
22378;SDS011;11357;49.990;7.370;2022-08-03T11:05:44;2.10;;;1.40;;
22378;SDS011;11357;49.990;7.370;2022-08-03T11:11:24;4.82;;;1.20;;
22378;SDS011;11357;49.990;7.370;2022-08-03T11:14:02;1.20;;;1.10;;
22378;SDS011;11357;49.990;7.370;2022-08-03T11:16:33;2.88;;;1.20;;
22378;SDS011;11357;49.990;7.370;2022-08-03T11:19:03;6.15;;;1.30;;
22378;SDS011;11357;49.990;7.370;2022-08-03T11:21:51;2.72;;;1.05;;
22378;SDS011;11357;49.990;7.370;2022-08-03T11:27:30;4.22;;;1.30;;
22378;SDS011;11357;49.990;7.370;2022-08-03T11:32:50;1.48;;;1.05;;
22378;SDS011;11357;49.990;7.370;2022-08-03T13:07:30;4.22;;;1.27;;
22378;SDS011;11357;49.990;7.370;2022-08-03T13:10:08;2.05;;;1.30;;
22378;SDS011;11357;49.990;7.370;2022-08-03T13:12:45;2.72;;;1.33;;
22378;SDS011;11357;49.990;7.370;2022-08-03T13:15:12;3.00;;;1.20;;
22378;SDS011;11357;49.990;7.370;2022-08-03T13:17:38;2.05;;;1.30;;
22378;SDS011;11357;49.990;7.370;2022-08-03T13:20:05;2.40;;;1.20;;
22378;SDS011;11357;49.990;7.370;2022-08-03T13:22:31;1.58;;;1.17;;
22378;SDS011;11357;49.990;7.370;2022-08-03T13:24:57;1.25;;;1.17;;
22378;SDS011;11357;49.990;7.370;2022-08-03T13:27:25;8.35;;;2.17;;
22378;SDS011;11357;49.990;7.370;2022-08-03T13:29:51;4.70;;;1.15;;
22378;SDS011;11357;49.990;7.370;2022-08-03T13:32:18;4.82;;;1.30;;
22378;SDS011;11357;49.990;7.370;2022-08-03T13:34:44;2.78;;;1.15;;
22378;SDS011;11357;49.990;7.370;2022-08-03T13:37:10;4.65;;;1.30;;
22378;SDS011;11357;49.990;7.370;2022-08-03T13:39:36;1.10;;;1.05;;
22378;SDS011;11357;49.990;7.370;2022-08-03T13:42:03;5.15;;;1.30;;
22378;SDS011;11357;49.990;7.370;2022-08-03T13:44:29;4.75;;;1.23;;
22378;SDS011;11357;49.990;7.370;2022-08-03T13:46:55;3.22;;;1.10;;
22378;SDS011;11357;49.990;7.370;2022-08-03T13:49:21;1.35;;;1.08;;
22378;SDS011;11357;49.990;7.370;2022-08-03T13:51:47;6.15;;;1.40;;
22378;SDS011;11357;49.990;7.370;2022-08-03T13:54:13;1.48;;;1.15;;
22378;SDS011;11357;49.990;7.370;2022-08-03T13:56:38;4.18;;;1.42;;
22378;SDS011;11357;49.990;7.370;2022-08-03T13:59:04;2.80;;;1.50;;
22378;SDS011;11357;49.990;7.370;2022-08-03T14:01:30;2.70;;;1.30;;
22378;SDS011;11357;49.990;7.370;2022-08-03T14:03:56;3.30;;;1.30;;
22378;SDS011;11357;49.990;7.370;2022-08-03T14:06:22;4.03;;;1.17;;
22378;SDS011;11357;49.990;7.370;2022-08-03T14:08:49;1.42;;;1.10;;
22378;SDS011;11357;49.990;7.370;2022-08-03T14:11:15;4.10;;;1.35;;
22378;SDS011;11357;49.990;7.370;2022-08-03T14:13:41;4.55;;;1.35;;
22378;SDS011;11357;49.990;7.370;2022-08-03T14:16:07;3.45;;;1.35;;
22378;SDS011;11357;49.990;7.370;2022-08-03T14:18:33;6.80;;;1.45;;
22378;SDS011;11357;49.990;7.370;2022-08-03T14:20:59;5.45;;;1.42;;
22378;SDS011;11357;49.990;7.370;2022-08-03T14:23:28;4.22;;;1.23;;
22378;SDS011;11357;49.990;7.370;2022-08-03T14:25:54;2.13;;;1.40;;
22378;SDS011;11357;49.990;7.370;2022-08-03T14:28:20;2.97;;;1.27;;
22378;SDS011;11357;49.990;7.370;2022-08-03T14:30:47;1.80;;;1.10;;
22378;SDS011;11357;49.990;7.370;2022-08-03T14:33:12;2.92;;;1.40;;
22378;SDS011;11357;49.990;7.370;2022-08-03T14:35:38;2.35;;;1.10;;
22378;SDS011;11357;49.990;7.370;2022-08-03T14:38:05;3.08;;;1.35;;
22378;SDS011;11357;49.990;7.370;2022-08-03T14:40:31;3.17;;;1.27;;
22378;SDS011;11357;49.990;7.370;2022-08-03T14:42:58;2.83;;;1.27;;
22378;SDS011;11357;49.990;7.370;2022-08-03T14:45:24;2.90;;;1.30;;
22378;SDS011;11357;49.990;7.370;2022-08-03T14:47:50;1.20;;;1.10;;
22378;SDS011;11357;49.990;7.370;2022-08-03T14:50:16;1.45;;;1.25;;
22378;SDS011;11357;49.990;7.370;2022-08-03T14:52:42;1.27;;;1.17;;
22378;SDS011;11357;49.990;7.370;2022-08-03T14:55:08;6.30;;;1.30;;
22378;SDS011;11357;49.990;7.370;2022-08-03T14:57:34;1.48;;;1.00;;
22378;SDS011;11357;49.990;7.370;2022-08-03T14:59:59;1.67;;;1.27;;
22378;SDS011;11357;49.990;7.370;2022-08-03T15:02:25;2.85;;;1.30;;
22378;SDS011;11357;49.990;7.370;2022-08-03T15:04:53;1.50;;;1.08;;
22378;SDS011;11357;49.990;7.370;2022-08-03T15:07:18;2.63;;;1.13;;
22378;SDS011;11357;49.990;7.370;2022-08-03T15:09:44;2.03;;;1.40;;
22378;SDS011;11357;49.990;7.370;2022-08-03T15:12:10;3.15;;;1.45;;
22378;SDS011;11357;49.990;7.370;2022-08-03T15:14:36;5.07;;;1.20;;
22378;SDS011;11357;49.990;7.370;2022-08-03T15:17:02;2.67;;;1.10;;
22378;SDS011;11357;49.990;7.370;2022-08-03T15:19:28;3.03;;;1.35;;
22378;SDS011;11357;49.990;7.370;2022-08-03T15:21:53;1.63;;;1.30;;
22378;SDS011;11357;49.990;7.370;2022-08-03T15:24:19;2.17;;;1.35;;
22378;SDS011;11357;49.990;7.370;2022-08-03T15:26:45;2.60;;;1.17;;
22378;SDS011;11357;49.990;7.370;2022-08-03T15:29:11;1.83;;;1.48;;
22378;SDS011;11357;49.990;7.370;2022-08-03T15:31:37;4.55;;;1.20;;
22378;SDS011;11357;49.990;7.370;2022-08-03T15:34:04;5.85;;;1.48;;
22378;SDS011;11357;49.990;7.370;2022-08-03T15:36:30;1.77;;;1.10;;
22378;SDS011;11357;49.990;7.370;2022-08-03T15:38:56;3.13;;;1.20;;
22378;SDS011;11357;49.990;7.370;2022-08-03T15:41:22;4.03;;;1.20;;
22378;SDS011;11357;49.990;7.370;2022-08-03T15:43:48;4.97;;;1.55;;
22378;SDS011;11357;49.990;7.370;2022-08-03T15:46:16;2.75;;;1.45;;
22378;SDS011;11357;49.990;7.370;2022-08-03T15:48:42;3.25;;;1.20;;
22378;SDS011;11357;49.990;7.370;2022-08-03T15:51:08;2.00;;;1.23;;
22378;SDS011;11357;49.990;7.370;2022-08-03T15:53:34;2.55;;;1.48;;
22378;SDS011;11357;49.990;7.370;2022-08-03T15:56:00;4.22;;;1.50;;
22378;SDS011;11357;49.990;7.370;2022-08-03T15:58:27;2.75;;;1.25;;
22378;SDS011;11357;49.990;7.370;2022-08-03T16:00:54;1.40;;;1.30;;
22378;SDS011;11357;49.990;7.370;2022-08-03T16:03:21;4.00;;;1.25;;
22378;SDS011;11357;49.990;7.370;2022-08-03T16:05:47;1.40;;;1.30;;
22378;SDS011;11357;49.990;7.370;2022-08-03T16:08:13;6.03;;;1.15;;
22378;SDS011;11357;49.990;7.370;2022-08-03T16:10:39;2.40;;;1.40;;
22378;SDS011;11357;49.990;7.370;2022-08-03T16:13:05;1.90;;;1.20;;
22378;SDS011;11357;49.990;7.370;2022-08-03T16:15:31;1.80;;;1.23;;
22378;SDS011;11357;49.990;7.370;2022-08-03T16:17:57;4.85;;;1.38;;
22378;SDS011;11357;49.990;7.370;2022-08-03T16:20:23;2.28;;;1.10;;
22378;SDS011;11357;49.990;7.370;2022-08-03T16:22:48;2.33;;;1.30;;
22378;SDS011;11357;49.990;7.370;2022-08-03T16:25:15;3.47;;;1.38;;
22378;SDS011;11357;49.990;7.370;2022-08-03T16:27:41;3.33;;;1.40;;
22378;SDS011;11357;49.990;7.370;2022-08-03T16:30:08;3.08;;;1.52;;
22378;SDS011;11357;49.990;7.370;2022-08-03T16:32:35;3.08;;;1.30;;
22378;SDS011;11357;49.990;7.370;2022-08-03T16:35:04;3.15;;;1.40;;
22378;SDS011;11357;49.990;7.370;2022-08-03T16:37:30;3.30;;;1.45;;
22378;SDS011;11357;49.990;7.370;2022-08-03T16:39:57;2.38;;;1.27;;
22378;SDS011;11357;49.990;7.370;2022-08-03T16:42:22;1.30;;;1.20;;
22378;SDS011;11357;49.990;7.370;2022-08-03T16:44:48;1.38;;;1.25;;
22378;SDS011;11357;49.990;7.370;2022-08-03T16:47:14;4.63;;;1.50;;
22378;SDS011;11357;49.990;7.370;2022-08-03T16:49:40;1.95;;;1.08;;
22378;SDS011;11357;49.990;7.370;2022-08-03T16:52:05;2.63;;;1.20;;
22378;SDS011;11357;49.990;7.370;2022-08-03T16:54:31;1.30;;;1.20;;
22378;SDS011;11357;49.990;7.370;2022-08-03T16:59:28;1.95;;;1.20;;